createdAt,value
2018-01-01T00:00:38.070Z,4.65
2018-01-01T00:03:05.758Z,4.86
2018-01-01T00:05:33.688Z,4.57
2018-01-01T00:08:01.519Z,4.30
2018-01-01T00:10:29.363Z,4.11
2018-01-01T00:12:57.308Z,3.79
2018-01-01T00:15:26.297Z,4.39
2018-01-01T00:17:54.411Z,4.32
2018-01-01T00:20:23.396Z,4.79
2018-01-01T00:22:51.169Z,4.64
2018-01-01T00:25:20.093Z,4.36
2018-01-01T00:27:48.594Z,4.11
2018-01-01T00:30:17.333Z,4.01
2018-01-01T00:32:45.848Z,3.78
2018-01-01T00:35:14.056Z,3.97
2018-01-01T00:37:41.852Z,3.87
2018-01-01T00:40:10.468Z,3.63
2018-01-01T00:42:38.158Z,3.70
2018-01-01T00:45:05.932Z,3.51
2018-01-01T00:47:35.576Z,3.71
2018-01-01T00:50:09.146Z,2.13
2018-01-01T01:02:06.134Z,3.31
2018-01-01T01:04:36.382Z,3.43
2018-01-01T01:07:04.484Z,3.23
2018-01-01T01:09:32.858Z,3.98
2018-01-01T01:12:00.564Z,3.93
2018-01-01T01:14:28.277Z,3.88
2018-01-01T01:16:56.140Z,3.28
2018-01-01T01:19:24.396Z,3.46
2018-01-01T01:21:52.133Z,2.52
2018-01-01T01:24:20.015Z,2.93
2018-01-01T01:26:48.633Z,2.84
2018-01-01T01:29:16.281Z,2.26
2018-01-01T01:31:43.953Z,1.56
2018-01-01T01:34:12.684Z,1.50
2018-01-01T01:36:40.334Z,1.57
2018-01-01T01:39:08.116Z,2.57
2018-01-01T01:41:35.987Z,2.88
2018-01-01T01:44:03.608Z,1.89
2018-01-01T01:46:32.196Z,2.09
2018-01-01T01:49:00.288Z,2.35
2018-01-01T01:51:30.988Z,2.58
2018-01-01T01:53:58.848Z,2.61
2018-01-01T01:56:27.036Z,2.82
2018-01-01T01:58:56.747Z,2.43
2018-01-01T02:04:02.557Z,2.39
2018-01-01T02:06:30.982Z,2.32
2018-01-01T02:09:00.540Z,2.48
2018-01-01T02:11:28.957Z,2.36
2018-01-01T02:13:57.373Z,2.20
2018-01-01T02:16:24.926Z,3.05
2018-01-01T02:18:52.592Z,3.01
2018-01-01T02:21:20.472Z,3.01
2018-01-01T02:23:48.224Z,2.89
2018-01-01T02:26:17.525Z,2.73
2018-01-01T02:28:45.189Z,3.03
2018-01-01T02:31:12.913Z,2.69
2018-01-01T02:33:40.617Z,2.75
2018-01-01T02:36:12.253Z,2.89
2018-01-01T02:38:39.985Z,3.12
2018-01-01T02:41:07.975Z,2.89
2018-01-01T02:43:35.823Z,2.85
2018-01-01T02:46:04.707Z,2.82
2018-01-01T02:48:34.206Z,2.89
2018-01-01T02:51:02.890Z,2.77
2018-01-01T02:53:31.222Z,3.03
2018-01-01T02:55:59.096Z,2.95
2018-01-01T02:58:26.734Z,3.02
2018-01-01T03:00:54.542Z,3.01
2018-01-01T03:03:23.228Z,3.46
2018-01-01T03:05:53.331Z,2.99
2018-01-01T03:08:22.166Z,2.72
2018-01-01T03:10:49.917Z,2.78
2018-01-01T03:13:18.563Z,2.81
2018-01-01T03:15:46.637Z,2.53
2018-01-01T03:18:14.369Z,2.39
2018-01-01T03:20:42.018Z,2.24
2018-01-01T03:23:09.911Z,2.95
2018-01-01T03:25:37.563Z,2.71
2018-01-01T03:28:05.273Z,2.70
2018-01-01T03:30:33.401Z,2.89
2018-01-01T03:33:01.585Z,2.83
2018-01-01T03:35:29.216Z,3.26
2018-01-01T03:37:56.885Z,3.38
2018-01-01T03:40:24.790Z,2.24
2018-01-01T03:42:52.460Z,2.34
2018-01-01T03:45:20.117Z,2.77
2018-01-01T03:47:47.805Z,2.53
2018-01-01T03:50:15.502Z,2.95
2018-01-01T03:52:43.227Z,2.63
2018-01-01T03:55:11.466Z,2.77
2018-01-01T03:57:39.319Z,2.73
2018-01-01T04:00:07.903Z,2.65
2018-01-01T04:02:35.639Z,2.48
2018-01-01T04:05:03.858Z,2.63
2018-01-01T04:07:32.370Z,2.92
2018-01-01T04:10:01.938Z,3.15
2018-01-01T04:12:33.753Z,3.01
2018-01-01T04:15:01.869Z,3.11
2018-01-01T04:17:29.952Z,3.06
2018-01-01T04:19:59.189Z,2.78
2018-01-01T04:22:28.616Z,2.54
2018-01-01T04:24:56.415Z,2.65
2018-01-01T04:27:25.147Z,2.14
2018-01-01T04:29:53.602Z,2.70
2018-01-01T04:32:21.277Z,2.39
2018-01-01T04:34:48.927Z,2.75
2018-01-01T04:37:17.547Z,2.73
2018-01-01T04:39:45.290Z,3.01
2018-01-01T04:42:15.953Z,2.28
2018-01-01T04:44:43.650Z,2.07
2018-01-01T04:47:11.311Z,2.17
2018-01-01T04:49:39.374Z,2.16
2018-01-01T04:52:07.025Z,1.87
2018-01-01T04:54:34.776Z,2.00
2018-01-01T04:57:02.443Z,2.01
2018-01-01T04:59:30.186Z,2.47
2018-01-01T05:02:02.330Z,2.09
2018-01-01T05:04:33.352Z,1.98
2018-01-01T05:07:05.297Z,2.01
2018-01-01T05:09:33.112Z,2.19
2018-01-01T05:12:05.058Z,2.18
2018-01-01T05:29:17.644Z,1.77
2018-01-01T05:31:46.350Z,1.86
2018-01-01T05:34:14.215Z,1.76
2018-01-01T05:36:42.083Z,1.73
2018-01-01T05:39:09.756Z,2.20
2018-01-01T05:41:37.387Z,2.09
2018-01-01T05:44:05.090Z,2.04
2018-01-01T05:46:32.749Z,1.84
2018-01-01T05:49:00.440Z,1.91
2018-01-01T05:51:28.126Z,1.88
2018-01-01T05:53:55.832Z,1.85
2018-01-01T05:56:23.474Z,1.91
2018-01-01T05:58:51.075Z,1.79
2018-01-01T06:01:19.901Z,1.53
2018-01-01T06:03:47.676Z,1.60
2018-01-01T06:06:15.326Z,1.82
2018-01-01T06:08:43.998Z,1.95
2018-01-01T06:11:11.671Z,2.02
2018-01-01T06:13:39.285Z,2.21
2018-01-01T06:16:06.968Z,2.10
2018-01-01T06:18:34.687Z,2.24
2018-01-01T06:21:02.480Z,2.58
2018-01-01T06:23:30.231Z,3.00
2018-01-01T06:25:58.584Z,2.83
2018-01-01T06:28:26.407Z,2.97
2018-01-01T06:30:54.102Z,3.54
2018-01-01T06:33:22.408Z,3.14
2018-01-01T06:35:50.224Z,3.71
2018-01-01T06:38:18.104Z,4.30
2018-01-01T06:40:46.733Z,4.89
2018-01-01T06:43:14.442Z,4.53
2018-01-01T06:45:42.153Z,5.26
2018-01-01T06:48:10.141Z,5.60
2018-01-01T06:50:37.838Z,5.66
2018-01-01T06:53:05.527Z,5.91
2018-01-01T06:55:33.250Z,6.44
2018-01-01T06:58:00.977Z,6.56
2018-01-01T07:00:29.105Z,7.30
2018-01-01T07:02:56.978Z,8.28
2018-01-01T07:05:25.514Z,8.41
2018-01-01T07:07:58.434Z,8.42
2018-01-01T07:10:27.611Z,7.25
2018-01-01T07:13:12.433Z,6.95
2018-01-01T07:15:40.100Z,8.07
2018-01-01T07:18:07.830Z,8.93
2018-01-01T07:20:35.478Z,8.87
2018-01-01T07:23:03.156Z,9.90
2018-01-01T07:25:30.975Z,9.87
2018-01-01T07:27:58.784Z,10.04
2018-01-01T07:30:27.407Z,10.55
2018-01-01T07:32:55.167Z,10.52
2018-01-01T07:35:22.815Z,10.34
2018-01-01T07:37:50.543Z,10.24
2018-01-01T07:40:18.252Z,10.99
2018-01-01T07:42:45.940Z,11.43
2018-01-01T07:45:14.530Z,11.39
2018-01-01T07:47:42.352Z,11.44
2018-01-01T07:50:10.640Z,11.48
2018-01-01T07:52:38.444Z,11.90
2018-01-01T07:55:35.061Z,12.89
2018-01-01T07:58:05.689Z,11.72
2018-01-01T08:00:33.362Z,11.43
2018-01-01T08:03:00.996Z,11.23
2018-01-01T08:05:28.816Z,12.15
2018-01-01T08:10:33.837Z,12.04
2018-01-01T08:13:01.499Z,12.51
2018-01-01T08:15:29.107Z,14.03
2018-01-01T08:17:59.794Z,14.15
2018-01-01T08:20:27.512Z,14.65
2018-01-01T08:22:55.199Z,14.73
2018-01-01T08:28:43.720Z,14.00
2018-01-01T08:31:44.425Z,14.49
2018-01-01T08:38:19.513Z,15.24
2018-01-01T08:40:48.967Z,14.62
2018-01-01T08:43:17.018Z,15.77
2018-01-01T08:45:45.032Z,16.56
2018-01-01T08:48:13.768Z,16.24
2018-01-01T08:50:41.501Z,16.31
2018-01-01T08:53:09.250Z,15.91
2018-01-01T08:55:38.438Z,16.57
2018-01-01T08:58:07.578Z,16.79
2018-01-01T09:00:35.914Z,17.00
2018-01-01T09:03:04.201Z,16.88
2018-01-01T09:05:31.916Z,16.56
2018-01-01T09:07:59.714Z,18.32
2018-01-01T09:10:27.903Z,17.44
2018-01-01T09:12:55.624Z,16.82
2018-01-01T09:15:24.167Z,17.82
2018-01-01T09:17:51.858Z,17.73
2018-01-01T09:20:19.568Z,18.18
2018-01-01T09:22:47.737Z,17.89
2018-01-01T09:25:16.513Z,18.03
2018-01-01T09:27:46.185Z,18.77
2018-01-01T09:30:14.122Z,18.76
2018-01-01T09:32:43.419Z,19.25
2018-01-01T09:35:19.078Z,18.94
2018-01-01T09:37:47.569Z,18.63
2018-01-01T09:40:19.995Z,18.54
2018-01-01T09:42:50.801Z,18.47
2018-01-01T09:45:18.594Z,19.02
2018-01-01T09:47:47.314Z,19.41
2018-01-01T09:50:15.012Z,19.03
2018-01-01T09:52:42.641Z,17.98
2018-01-01T09:55:11.368Z,20.70
2018-01-01T09:57:39.217Z,20.30
2018-01-01T10:00:08.409Z,18.40
2018-01-01T10:02:36.257Z,17.41
2018-01-01T10:05:04.208Z,17.74
2018-01-01T10:07:35.518Z,18.35
2018-01-01T10:10:04.106Z,18.05
2018-01-01T10:12:35.656Z,18.28
2018-01-01T10:15:07.906Z,18.35
2018-01-01T10:17:35.921Z,18.27
2018-01-01T10:20:05.649Z,18.02
2018-01-01T10:25:10.758Z,18.15
2018-01-01T10:27:41.903Z,18.42
2018-01-01T10:32:42.814Z,15.70
2018-01-01T10:37:47.637Z,14.71
2018-01-01T10:40:15.602Z,15.05
2018-01-01T10:51:37.425Z,17.00
2018-01-01T10:54:05.525Z,15.97
2018-01-01T10:56:46.684Z,15.52
2018-01-01T10:59:15.952Z,14.31
2018-01-01T11:01:49.691Z,14.50
2018-01-01T11:04:19.460Z,14.73
2018-01-01T11:09:31.683Z,14.26
2018-01-01T11:12:01.095Z,14.73
2018-01-01T11:17:11.568Z,14.05
2018-01-01T11:19:39.356Z,14.34
2018-01-01T11:25:48.804Z,14.19
2018-01-01T11:31:02.956Z,14.94
2018-01-01T11:33:34.449Z,14.57
2018-01-01T11:36:02.983Z,14.41
2018-01-01T11:41:13.918Z,14.78
2018-01-01T11:43:44.006Z,14.45
2018-01-01T11:48:52.819Z,14.85
2018-01-01T11:51:22.019Z,14.85
2018-01-01T11:53:56.392Z,14.77
2018-01-01T11:56:27.633Z,14.92
2018-01-01T11:59:10.808Z,14.26
2018-01-01T12:04:17.569Z,14.55
2018-01-01T12:06:46.530Z,14.57
2018-01-01T12:09:17.624Z,13.34
2018-01-01T12:11:45.439Z,13.75
2018-01-01T12:14:14.975Z,14.41
2018-01-01T12:16:43.028Z,14.59
2018-01-01T12:19:11.699Z,13.87
2018-01-01T12:21:45.562Z,13.70
2018-01-01T12:24:14.802Z,14.39
2018-01-01T12:30:04.668Z,14.55
2018-01-01T12:32:41.373Z,13.67
2018-01-01T13:00:04.112Z,12.80
2018-01-01T13:02:37.545Z,12.39
2018-01-01T13:05:09.006Z,13.00
2018-01-01T13:07:37.108Z,12.84
2018-01-01T13:10:05.589Z,12.42
2018-01-01T13:12:35.047Z,12.37
2018-01-01T13:15:03.916Z,12.71
2018-01-01T13:17:38.397Z,13.12
2018-01-01T13:20:11.095Z,12.60
2018-01-01T13:22:39.892Z,12.12
2018-01-01T13:25:10.764Z,13.18
2018-01-01T13:27:51.470Z,13.26
2018-01-01T13:37:19.239Z,12.92
2018-01-01T13:46:41.254Z,13.52
2018-01-01T13:49:09.452Z,13.27
2018-01-01T13:51:40.342Z,13.51
2018-01-01T13:54:10.391Z,13.56
2018-01-01T13:56:39.721Z,13.41
2018-01-01T13:59:15.273Z,13.41
2018-01-01T14:05:13.348Z,13.91
2018-01-01T14:07:44.266Z,13.71
2018-01-01T14:10:26.645Z,13.57
2018-01-01T14:20:10.198Z,13.02
2018-01-01T14:22:42.080Z,12.99
2018-01-01T14:25:11.887Z,13.00
2018-01-01T14:27:42.923Z,12.32
2018-01-01T14:30:11.857Z,12.24
2018-01-01T14:32:40.364Z,12.44
2018-01-01T14:35:10.993Z,12.18
2018-01-01T14:37:47.900Z,12.17
2018-01-01T14:40:15.781Z,11.64
2018-01-01T14:42:44.149Z,11.93
2018-01-01T14:45:13.548Z,11.97
2018-01-01T14:47:41.503Z,11.70
2018-01-01T14:50:09.885Z,11.64
2018-01-01T14:52:38.551Z,11.67
2018-01-01T14:55:07.599Z,11.35
2018-01-01T14:57:40.711Z,11.78
2018-01-01T15:00:17.680Z,11.64
2018-01-01T15:02:46.516Z,11.23
2018-01-01T15:05:17.209Z,10.95
2018-01-01T15:07:47.296Z,10.51
2018-01-01T15:10:17.571Z,10.69
2018-01-01T15:12:47.666Z,10.70
2018-01-01T15:15:19.744Z,10.81
2018-01-01T15:17:49.651Z,10.67
2018-01-01T15:20:21.978Z,10.33
2018-01-01T15:22:52.723Z,10.78
2018-01-01T15:25:23.298Z,10.31
2018-01-01T15:27:54.491Z,10.58
2018-01-01T16:58:02.454Z,8.01
2018-01-01T17:00:30.958Z,8.26
2018-01-01T17:02:58.811Z,8.15
2018-01-01T17:05:28.469Z,8.13
2018-01-01T17:07:59.140Z,8.13
2018-01-01T17:10:28.689Z,8.20
2018-01-01T17:12:59.323Z,8.43
2018-01-01T17:15:27.098Z,8.10
2018-01-01T17:17:56.735Z,8.02
2018-01-01T17:20:25.523Z,7.87
2018-01-01T17:22:54.346Z,8.16
2018-01-01T17:25:22.374Z,8.04
2018-01-01T17:27:50.413Z,7.44
2018-01-01T17:30:20.099Z,7.76
2018-01-01T17:32:48.060Z,8.14
2018-01-01T17:35:15.919Z,7.79
2018-01-01T17:37:48.839Z,7.79
2018-01-01T17:40:17.615Z,7.65
2018-01-01T17:42:45.662Z,7.65
2018-01-01T17:45:13.633Z,8.03
2018-01-01T17:47:41.560Z,8.28
2018-01-01T17:50:10.599Z,8.25
2018-01-01T17:52:38.462Z,7.68
2018-01-01T17:55:07.559Z,7.94
2018-01-01T17:57:38.920Z,7.69
2018-01-01T18:00:15.069Z,7.50
2018-01-01T18:02:43.313Z,8.01
2018-01-01T18:05:12.547Z,7.78
2018-01-01T18:07:40.680Z,7.96
2018-01-01T18:10:08.346Z,7.87
2018-01-01T18:12:36.113Z,7.04
2018-01-01T18:15:06.276Z,7.51
2018-01-01T18:17:34.983Z,7.50
2018-01-01T18:20:03.806Z,7.59
2018-01-01T18:22:32.170Z,7.17
2018-01-01T18:25:01.315Z,7.46
2018-01-01T18:27:29.841Z,7.37
2018-01-01T18:29:58.685Z,7.13
2018-01-01T18:32:27.547Z,6.93
2018-01-01T18:34:57.374Z,7.19
2018-01-01T18:40:15.936Z,7.29
2018-01-01T18:42:49.857Z,7.74
2018-01-01T18:45:20.406Z,7.28
2018-01-01T18:47:49.546Z,6.90
2018-01-01T18:53:35.030Z,7.19
2018-01-01T18:56:02.921Z,7.10
2018-01-01T18:58:31.647Z,6.64
2018-01-01T19:00:59.814Z,7.22
2018-01-01T19:03:27.728Z,7.19
2018-01-01T19:05:56.256Z,7.47
2018-01-01T19:08:25.338Z,7.27
2018-01-01T19:10:53.931Z,6.85
2018-01-01T19:13:22.721Z,7.00
2018-01-01T19:15:51.538Z,6.84
2018-01-01T19:18:20.923Z,6.61
2018-01-01T19:20:49.946Z,6.79
2018-01-01T19:23:19.171Z,7.04
2018-01-01T19:25:47.882Z,7.37
2018-01-01T19:28:16.869Z,7.09
2018-01-01T19:30:45.111Z,6.64
2018-01-01T19:33:13.113Z,6.68
2018-01-01T19:35:44.772Z,6.84
2018-01-01T19:38:19.704Z,6.55
2018-01-01T19:40:48.333Z,6.75
2018-01-01T19:43:17.018Z,6.18
2018-01-01T19:45:47.532Z,6.69
2018-01-01T19:48:15.279Z,6.43
2018-01-01T19:50:43.955Z,6.10
2018-01-01T19:58:14.872Z,5.45
2018-01-01T20:00:45.105Z,5.49
2018-01-01T20:03:15.338Z,4.80
2018-01-01T20:05:44.765Z,5.60
2018-01-01T20:08:14.689Z,5.72
2018-01-01T20:10:42.396Z,5.74
2018-01-01T20:13:10.518Z,5.49
2018-01-01T20:15:38.619Z,5.80
2018-01-01T20:18:06.948Z,5.69
2018-01-01T20:20:35.646Z,5.80
2018-01-01T20:23:04.248Z,5.61
2018-01-01T20:25:32.374Z,5.50
2018-01-01T20:28:01.013Z,5.88
2018-01-01T20:30:29.279Z,5.69
2018-01-01T20:32:57.271Z,6.00
2018-01-01T20:35:25.263Z,5.93
2018-01-01T20:37:53.280Z,5.86
2018-01-01T20:40:22.836Z,5.81
2018-01-01T20:42:50.804Z,5.61
2018-01-01T20:45:20.878Z,5.60
2018-01-01T20:47:48.666Z,5.63
2018-01-01T20:50:16.925Z,6.16
2018-01-01T20:52:44.749Z,6.24
2018-01-01T20:55:13.043Z,6.09
2018-01-01T20:57:40.935Z,6.24
2018-01-01T21:00:09.071Z,6.30
2018-01-01T21:02:37.697Z,6.16
2018-01-01T21:05:05.413Z,6.14
2018-01-01T21:07:33.701Z,6.27
2018-01-01T21:10:03.411Z,6.48
2018-01-01T21:12:31.158Z,6.04
2018-01-01T21:14:59.200Z,6.24
2018-01-01T21:17:27.109Z,6.31
2018-01-01T21:20:17.128Z,6.37
2018-01-01T21:22:46.123Z,6.29
2018-01-01T21:25:14.258Z,6.00
2018-01-01T21:27:42.076Z,6.16
2018-01-01T21:33:21.379Z,6.30
2018-01-01T21:35:49.162Z,5.99
2018-01-01T21:46:34.823Z,5.90
2018-01-01T22:02:56.006Z,5.45
2018-01-01T22:08:48.379Z,5.82
2018-01-01T22:11:17.654Z,5.90
2018-01-01T22:13:45.277Z,5.37
2018-01-01T22:16:13.529Z,5.41
2018-01-01T22:18:41.741Z,5.29
2018-01-01T22:21:11.171Z,5.26
2018-01-01T22:23:38.768Z,5.47
2018-01-01T22:26:07.865Z,5.14
2018-01-01T22:28:37.215Z,5.28
2018-01-01T22:31:05.644Z,5.45
2018-01-01T22:33:34.884Z,5.38
2018-01-01T22:36:04.007Z,5.55
2018-01-01T22:38:32.907Z,5.82
2018-01-01T22:41:00.936Z,5.44
2018-01-01T22:43:28.592Z,5.39
2018-01-01T22:45:56.216Z,5.16
2018-01-01T22:48:23.922Z,5.37
2018-01-01T22:50:51.640Z,5.18
2018-01-01T22:53:20.206Z,4.93
2018-01-01T22:55:49.353Z,5.60
2018-01-01T22:58:20.479Z,5.39
2018-01-01T23:00:50.305Z,5.30
2018-01-01T23:03:20.212Z,5.38
2018-01-01T23:05:50.793Z,5.46
2018-01-01T23:08:20.300Z,5.57
2018-01-01T23:10:49.904Z,5.57
2018-01-01T23:13:20.841Z,5.47
2018-01-01T23:15:52.151Z,5.55
2018-01-01T23:18:22.156Z,5.31
2018-01-01T23:20:52.202Z,5.50
2018-01-01T23:23:25.957Z,5.43
2018-01-01T23:25:59.560Z,5.48
2018-01-01T23:28:29.894Z,5.54
2018-01-01T23:31:02.598Z,5.55
2018-01-01T23:33:33.354Z,4.88
2018-01-01T23:36:03.098Z,5.26
2018-01-01T23:38:34.902Z,5.19
2018-01-01T23:41:05.211Z,5.27
2018-01-01T23:43:34.159Z,5.01
2018-01-01T23:46:03.382Z,5.20
2018-01-01T23:48:31.984Z,5.36
2018-01-01T23:51:01.087Z,5.16
2018-01-01T23:53:30.458Z,5.31
2018-01-01T23:56:00.127Z,5.09
2018-01-01T23:58:29.227Z,4.87
